Time;durP1;ratioP1;P1;durP2;ratioP2;P2;SDS_P1;SDS_P2;PMS_P1;PMS_P2;Temp;Humidity;BMP_temperature;BMP_pressure;BME280_temperature;BME280_humidity;BME280_pressure;Samples;Min_cycle;Max_cycle;Signal;HPM_P1;HPM_P2
2023/10/27 00:01:33;;;;;;;8.75;2.03;;;13.30;69.20;;;;;;5020859;28;20045;-43
2023/10/27 00:04:00;;;;;;;4.70;1.90;;;13.30;69.30;;;;;;5021264;28;20413;-47
2023/10/27 00:06:32;;;;;;;9.25;2.47;;;13.30;69.40;;;;;;5021584;28;20068;-45
2023/10/27 00:09:00;;;;;;;8.98;2.65;;;13.30;69.40;;;;;;5022702;28;20045;-47
2023/10/27 00:11:27;;;;;;;10.43;2.80;;;13.30;69.40;;;;;;5021781;28;20498;-49
2023/10/27 00:13:55;;;;;;;13.07;2.97;;;13.30;69.40;;;;;;5021526;28;20069;-49
2023/10/27 00:16:24;;;;;;;7.07;3.05;;;13.30;69.40;;;;;;5020587;28;20400;-47
2023/10/27 00:18:51;;;;;;;13.48;3.17;;;13.30;69.40;;;;;;5023076;28;20398;-46
2023/10/27 00:21:19;;;;;;;7.18;2.70;;;13.30;69.30;;;;;;5021365;28;20064;-45
2023/10/27 00:23:46;;;;;;;8.88;3.03;;;13.30;69.30;;;;;;5019698;28;20064;-46
2023/10/27 00:26:13;;;;;;;11.55;3.28;;;13.30;69.20;;;;;;5021662;28;20054;-47
2023/10/27 00:28:40;;;;;;;10.30;2.90;;;13.30;69.20;;;;;;5020756;28;20045;-49
2023/10/27 00:31:08;;;;;;;7.82;2.60;;;13.40;69.20;;;;;;5020762;28;20057;-43
2023/10/27 00:33:36;;;;;;;10.90;2.72;;;13.30;69.20;;;;;;5020121;28;20068;-41
2023/10/27 00:36:04;;;;;;;9.95;2.92;;;13.40;69.30;;;;;;5021175;28;20055;-41
2023/10/27 00:38:32;;;;;;;8.95;2.80;;;13.30;69.30;;;;;;5021337;28;20053;-44
2023/10/27 00:40:59;;;;;;;8.95;3.30;;;13.30;69.30;;;;;;5021789;28;20045;-45
2023/10/27 00:43:26;;;;;;;9.60;3.15;;;13.40;69.30;;;;;;5019027;28;20050;-42
2023/10/27 00:45:54;;;;;;;15.38;3.53;;;13.30;69.30;;;;;;5021128;28;20057;-43
2023/10/27 00:48:22;;;;;;;8.65;2.97;;;13.40;69.30;;;;;;5021542;28;20056;-42
2023/10/27 00:50:51;;;;;;;14.00;3.95;;;13.40;69.20;;;;;;5020927;28;20049;-41
2023/10/27 00:53:20;;;;;;;8.50;3.30;;;13.40;69.30;;;;;;5020135;28;20053;-43
2023/10/27 00:55:48;;;;;;;13.52;3.80;;;13.30;69.20;;;;;;5019808;28;20049;-43
2023/10/27 00:58:16;;;;;;;10.45;3.40;;;13.30;69.30;;;;;;5020682;28;20509;-45
2023/10/27 01:00:44;;;;;;;9.05;3.63;;;13.40;69.40;;;;;;5019379;28;20113;-42
2023/10/27 01:03:11;;;;;;;15.38;3.85;;;13.40;69.40;;;;;;5020234;28;20045;-42
2023/10/27 01:05:38;;;;;;;8.77;3.30;;;13.40;69.40;;;;;;5020009;28;20049;-41
2023/10/27 01:08:07;;;;;;;10.10;3.42;;;13.40;69.40;;;;;;5020971;28;20053;-41
2023/10/27 01:10:35;;;;;;;7.97;3.13;;;13.40;69.30;;;;;;5019781;28;20053;-41
2023/10/27 01:13:02;;;;;;;10.98;3.40;;;13.40;69.30;;;;;;5019712;28;20045;-44
2023/10/27 01:15:30;;;;;;;7.32;3.20;;;13.40;69.10;;;;;;5019326;28;20053;-43
2023/10/27 01:17:57;;;;;;;10.95;3.25;;;13.40;69.10;;;;;;5020477;28;20600;-44
2023/10/27 01:20:24;;;;;;;14.40;3.50;;;13.40;69.00;;;;;;5020777;28;20403;-44
2023/10/27 01:22:53;;;;;;;8.15;3.67;;;13.40;68.90;;;;;;5020335;28;20515;-43
2023/10/27 01:25:20;;;;;;;13.75;3.28;;;13.30;68.80;;;;;;5020742;28;20041;-42
2023/10/27 01:27:48;;;;;;;8.05;3.00;;;13.30;68.80;;;;;;5019017;28;20461;-42
2023/10/27 01:30:15;;;;;;;10.95;3.33;;;13.30;68.80;;;;;;5019104;28;20061;-42
2023/10/27 01:32:43;;;;;;;10.15;3.08;;;13.30;68.60;;;;;;5016772;28;20045;-42
2023/10/27 01:35:10;;;;;;;14.35;3.63;;;13.30;68.70;;;;;;5019912;28;20061;-43
2023/10/27 01:37:37;;;;;;;11.68;3.90;;;13.30;68.70;;;;;;5019669;28;20057;-41
2023/10/27 01:40:07;;;;;;;11.32;3.13;;;13.30;68.70;;;;;;5021510;28;20061;-41
2023/10/27 01:42:36;;;;;;;11.15;2.60;;;13.20;68.70;;;;;;5020886;28;20065;-49
2023/10/27 01:45:04;;;;;;;11.90;2.85;;;13.30;68.70;;;;;;5018917;28;20480;-47
2023/10/27 01:47:32;;;;;;;11.90;3.50;;;13.20;68.70;;;;;;5019046;28;20068;-46
2023/10/27 01:49:59;;;;;;;11.45;3.75;;;13.20;68.80;;;;;;5019864;28;20049;-45
2023/10/27 01:52:27;;;;;;;11.65;3.50;;;13.20;68.80;;;;;;5019640;28;20053;-46
2023/10/27 01:54:54;;;;;;;8.88;3.45;;;13.20;68.90;;;;;;5021073;28;20073;-46
2023/10/27 01:57:24;;;;;;;12.43;3.80;;;13.20;68.90;;;;;;5018875;28;20425;-46
2023/10/27 01:59:51;;;;;;;12.10;3.80;;;13.20;69.60;;;;;;5019052;28;20057;-46
2023/10/27 02:02:18;;;;;;;12.82;3.60;;;13.20;69.00;;;;;;5018919;28;20053;-47
2023/10/27 02:04:45;;;;;;;12.38;4.35;;;13.20;69.00;;;;;;5019840;28;20080;-46
2023/10/27 02:07:15;;;;;;;12.20;3.70;;;13.30;69.00;;;;;;5020962;28;20065;-44
2023/10/27 02:09:42;;;;;;;11.52;3.92;;;13.30;69.10;;;;;;5020163;28;20082;-45
2023/10/27 02:12:10;;;;;;;14.40;4.93;;;13.30;69.10;;;;;;5018561;28;20046;-45
2023/10/27 02:14:39;;;;;;;16.10;4.20;;;13.30;69.00;;;;;;5019773;28;20057;-44
2023/10/27 02:17:07;;;;;;;13.57;3.65;;;13.30;69.10;;;;;;5018830;28;20509;-43
2023/10/27 02:19:34;;;;;;;10.23;3.67;;;13.20;69.00;;;;;;5018092;28;20057;-47
2023/10/27 02:22:02;;;;;;;15.80;4.22;;;13.30;69.10;;;;;;5021045;28;20057;-46
2023/10/27 02:24:29;;;;;;;10.88;3.58;;;13.30;69.10;;;;;;5019131;28;20053;-45
2023/10/27 02:26:58;;;;;;;14.80;3.97;;;13.30;69.10;;;;;;5017087;28;20049;-44
2023/10/27 02:29:26;;;;;;;13.57;3.95;;;13.30;69.10;;;;;;5019650;28;20064;-44
2023/10/27 02:31:54;;;;;;;11.18;3.72;;;13.30;69.10;;;;;;5018689;28;20085;-45
2023/10/27 02:34:22;;;;;;;14.73;4.07;;;13.30;69.20;;;;;;5019777;28;20057;-47
2023/10/27 02:36:49;;;;;;;10.75;4.03;;;13.30;69.20;;;;;;5020446;28;21088;-49
2023/10/27 02:39:16;;;;;;;14.25;4.32;;;13.30;69.20;;;;;;5018227;28;20057;-46
2023/10/27 02:41:43;;;;;;;15.65;4.72;;;13.30;69.20;;;;;;5018053;28;20479;-43
2023/10/27 02:44:11;;;;;;;14.82;4.78;;;13.30;69.20;;;;;;5021276;28;20694;-46
2023/10/27 02:46:38;;;;;;;19.75;5.32;;;13.30;69.20;;;;;;5022537;28;20068;-45
2023/10/27 02:49:07;;;;;;;13.48;6.32;;;13.30;69.20;;;;;;5019692;28;20057;-45
2023/10/27 02:51:34;;;;;;;20.10;5.95;;;13.30;69.20;;;;;;5022789;28;20050;-44
2023/10/27 02:54:01;;;;;;;14.02;5.75;;;13.30;69.30;;;;;;5023065;28;20045;-43
2023/10/27 02:56:28;;;;;;;22.70;5.97;;;13.30;69.30;;;;;;5022590;28;20057;-43
2023/10/27 02:58:56;;;;;;;22.95;6.93;;;13.30;69.30;;;;;;5022594;28;20072;-45
2023/10/27 03:01:23;;;;;;;19.40;6.38;;;13.30;69.40;;;;;;5021712;28;20050;-43
2023/10/27 03:03:50;;;;;;;17.15;6.25;;;13.30;69.40;;;;;;5024496;28;20057;-42
2023/10/27 03:06:19;;;;;;;17.42;5.53;;;13.30;69.40;;;;;;5018698;28;20072;-43
2023/10/27 03:08:46;;;;;;;18.73;5.75;;;13.30;69.50;;;;;;5021222;28;20472;-42
2023/10/27 03:11:13;;;;;;;22.73;6.45;;;13.30;69.60;;;;;;5022801;28;20505;-43
2023/10/27 03:13:41;;;;;;;11.02;4.95;;;13.30;69.50;;;;;;5021707;28;20049;-47
2023/10/27 03:16:08;;;;;;;13.13;5.28;;;13.30;69.50;;;;;;5022666;28;20065;-44
2023/10/27 03:18:35;;;;;;;18.17;5.75;;;13.30;69.60;;;;;;5020779;28;20572;-44
2023/10/27 03:21:05;;;;;;;21.08;6.03;;;13.40;69.70;;;;;;5022167;28;20060;-42
2023/10/27 03:23:34;;;;;;;14.85;4.90;;;13.40;69.70;;;;;;5020663;28;20049;-43
2023/10/27 03:26:02;;;;;;;12.15;5.10;;;13.40;69.70;;;;;;5022980;28;20076;-42
2023/10/27 03:28:30;;;;;;;25.55;5.57;;;13.40;69.70;;;;;;5022293;28;20049;-43
2023/10/27 03:30:57;;;;;;;17.30;5.25;;;13.40;69.70;;;;;;5022613;28;20053;-46
2023/10/27 03:33:24;;;;;;;16.85;5.32;;;13.40;69.70;;;;;;5020310;28;20053;-43
2023/10/27 03:35:52;;;;;;;21.25;5.63;;;13.40;69.70;;;;;;5021472;28;20399;-44
2023/10/27 03:38:19;;;;;;;14.20;4.50;;;13.40;69.80;;;;;;5021183;28;20528;-42
2023/10/27 03:40:48;;;;;;;13.55;4.70;;;13.40;69.80;;;;;;5021635;28;20049;-42
2023/10/27 03:43:16;;;;;;;16.27;5.65;;;13.40;69.80;;;;;;5021141;28;20065;-45
2023/10/27 03:45:43;;;;;;;16.70;4.82;;;13.40;69.80;;;;;;5020853;28;20060;-46
2023/10/27 03:48:11;;;;;;;14.25;5.07;;;13.40;69.80;;;;;;5020836;28;20053;-43
2023/10/27 03:50:38;;;;;;;25.35;5.75;;;13.40;69.70;;;;;;5018509;28;20378;-43
2023/10/27 03:53:05;;;;;;;19.85;4.95;;;13.40;69.80;;;;;;5020679;28;20524;-42
2023/10/27 03:55:33;;;;;;;16.23;5.28;;;13.50;69.90;;;;;;5022752;28;20061;-42
2023/10/27 03:58:14;;;;;;;15.07;5.05;;;13.40;69.90;;;;;;5020826;28;20709;-44
2023/10/27 04:00:42;;;;;;;20.90;5.35;;;13.50;69.90;;;;;;5018571;28;20037;-45
2023/10/27 04:03:10;;;;;;;17.25;5.30;;;13.50;69.80;;;;;;5020807;28;20056;-41
2023/10/27 04:05:37;;;;;;;11.82;5.22;;;13.50;69.90;;;;;;5022148;28;20057;-43
2023/10/27 04:08:04;;;;;;;16.42;4.90;;;13.40;69.80;;;;;;5020848;28;20064;-41
2023/10/27 04:10:32;;;;;;;13.35;4.65;;;13.50;69.90;;;;;;5022787;28;20410;-44
2023/10/27 04:13:00;;;;;;;19.17;4.95;;;13.50;70.00;;;;;;5019385;28;20049;-43
2023/10/27 04:15:29;;;;;;;12.70;4.47;;;13.50;70.00;;;;;;5020059;28;20065;-43
2023/10/27 04:17:56;;;;;;;14.18;5.07;;;13.50;70.10;;;;;;5018934;28;20042;-45
2023/10/27 04:20:24;;;;;;;14.00;4.85;;;13.50;70.10;;;;;;5021254;28;20053;-41
2023/10/27 04:22:51;;;;;;;17.02;4.70;;;13.50;70.10;;;;;;5020315;28;20053;-41
2023/10/27 04:25:18;;;;;;;20.52;5.03;;;13.50;70.10;;;;;;5017964;28;20053;-44
2023/10/27 04:27:45;;;;;;;17.00;4.38;;;13.50;70.10;;;;;;5020626;28;20053;-42
2023/10/27 04:30:15;;;;;;;17.25;4.43;;;13.50;70.10;;;;;;5019545;28;20057;-45
2023/10/27 04:32:45;;;;;;;14.48;4.05;;;13.50;70.10;;;;;;5019697;28;20494;-41
2023/10/27 04:35:13;;;;;;;14.60;4.20;;;13.50;70.10;;;;;;5018246;28;20057;-43
2023/10/27 04:37:40;;;;;;;14.55;3.92;;;13.50;70.10;;;;;;5020517;28;20406;-43
2023/10/27 04:40:09;;;;;;;15.68;3.90;;;13.50;70.10;;;;;;5021426;28;20057;-43
2023/10/27 04:42:36;;;;;;;12.13;3.70;;;13.50;70.10;;;;;;5020142;28;20077;-41
2023/10/27 04:45:04;;;;;;;19.98;4.25;;;13.50;70.10;;;;;;5018374;28;20060;-41
2023/10/27 04:47:31;;;;;;;10.98;3.80;;;13.60;70.20;;;;;;5018304;28;20072;-44
2023/10/27 04:50:00;;;;;;;14.88;3.97;;;13.60;70.20;;;;;;5018915;28;20053;-45
2023/10/27 04:52:27;;;;;;;15.18;4.00;;;13.60;70.20;;;;;;5021100;28;20072;-42
2023/10/27 04:54:55;;;;;;;19.55;4.28;;;13.60;70.20;;;;;;5019753;28;20489;-44
2023/10/27 04:57:22;;;;;;;17.15;3.95;;;13.60;70.30;;;;;;5020375;28;20053;-45
2023/10/27 04:59:50;;;;;;;15.88;4.03;;;13.60;70.20;;;;;;5020654;28;20053;-42
2023/10/27 05:02:18;;;;;;;16.45;3.58;;;13.60;70.30;;;;;;5019134;28;20107;-42
2023/10/27 05:04:45;;;;;;;13.57;3.80;;;13.60;70.90;;;;;;5019702;28;20046;-42
2023/10/27 05:07:14;;;;;;;23.27;4.28;;;13.60;70.30;;;;;;5019712;28;20061;-42
2023/10/27 05:09:42;;;;;;;18.23;3.50;;;13.60;70.30;;;;;;5019630;28;20067;-42
2023/10/27 05:12:09;;;;;;;13.07;3.20;;;13.60;70.30;;;;;;5017211;28;20064;-43
2023/10/27 05:14:36;;;;;;;14.77;3.55;;;13.60;70.30;;;;;;5019450;28;20397;-45
2023/10/27 05:17:04;;;;;;;13.57;3.63;;;13.60;70.30;;;;;;5017523;28;20563;-44
2023/10/27 05:19:31;;;;;;;11.73;2.97;;;13.60;70.40;;;;;;5018328;28;20052;-42
2023/10/27 05:21:58;;;;;;;11.50;2.83;;;13.60;70.30;;;;;;5019606;28;20505;-43
2023/10/27 05:24:27;;;;;;;12.32;3.25;;;13.60;70.40;;;;;;5018012;28;20052;-43
2023/10/27 05:26:54;;;;;;;10.77;2.63;;;13.60;70.40;;;;;;5019888;28;20481;-44
2023/10/27 05:29:21;;;;;;;15.75;3.40;;;13.60;71.10;;;;;;5018222;28;20056;-42
2023/10/27 05:31:48;;;;;;;12.57;2.67;;;13.60;70.40;;;;;;5018533;28;20061;-42
2023/10/27 05:34:16;;;;;;;11.57;2.78;;;13.60;70.40;;;;;;5017615;28;20556;-41
2023/10/27 05:36:44;;;;;;;10.60;2.78;;;13.60;70.50;;;;;;5018403;28;20053;-44
2023/10/27 05:39:16;;;;;;;93.80;36.13;;;13.60;70.50;;;;;;5018236;28;20061;-42
2023/10/27 05:41:46;;;;;;;37.53;16.85;;;13.60;70.60;;;;;;5019513;28;20049;-41
2023/10/27 05:44:13;;;;;;;18.25;7.88;;;13.60;70.60;;;;;;5016919;28;20591;-42
2023/10/27 05:46:40;;;;;;;13.02;4.47;;;13.60;70.60;;;;;;5017721;28;20438;-41
2023/10/27 05:49:08;;;;;;;8.07;3.08;;;13.60;70.60;;;;;;5019507;28;20513;-41
2023/10/27 05:51:35;;;;;;;8.77;2.72;;;13.60;70.60;;;;;;5018606;28;20056;-42
2023/10/27 05:54:03;;;;;;;8.50;2.72;;;13.60;70.60;;;;;;5017329;28;20057;-41
2023/10/27 05:56:30;;;;;;;8.38;2.35;;;13.60;70.60;;;;;;5017184;28;20045;-44
2023/10/27 05:58:59;;;;;;;11.70;2.80;;;13.60;70.60;;;;;;5018716;28;20049;-41
2023/10/27 06:01:26;;;;;;;9.15;2.63;;;13.60;70.60;;;;;;5019850;28;20053;-41
2023/10/27 06:03:57;;;;;;;6.45;2.30;;;13.60;70.60;;;;;;5019081;28;20060;-43
2023/10/27 06:06:24;;;;;;;9.50;2.58;;;13.60;70.60;;;;;;5018258;28;20410;-43
2023/10/27 06:08:52;;;;;;;8.73;2.60;;;13.60;70.60;;;;;;5017850;28;20399;-45
2023/10/27 06:11:19;;;;;;;6.88;2.40;;;13.60;70.70;;;;;;5018640;28;20306;-44
2023/10/27 06:13:46;;;;;;;6.30;2.22;;;13.60;70.60;;;;;;5019731;28;20050;-41
2023/10/27 06:16:15;;;;;;;5.70;1.80;;;13.60;70.60;;;;;;5016168;28;20045;-41
2023/10/27 06:18:42;;;;;;;15.88;6.78;;;13.60;70.60;;;;;;5021386;28;20061;-42
2023/10/27 06:21:09;;;;;;;15.23;6.75;;;13.60;70.60;;;;;;5022571;28;20433;-41
2023/10/27 06:23:37;;;;;;;26.23;13.02;;;13.60;70.60;;;;;;5023583;28;20049;-42
2023/10/27 06:26:04;;;;;;;9.10;3.58;;;13.60;70.70;;;;;;5023802;28;20529;-44
2023/10/27 06:28:32;;;;;;;6.97;2.67;;;13.60;70.60;;;;;;5023532;28;20073;-41
2023/10/27 06:31:01;;;;;;;8.23;2.05;;;13.60;70.70;;;;;;5022183;28;20053;-40
2023/10/27 06:33:32;;;;;;;7.72;1.88;;;13.60;70.70;;;;;;5022465;28;20064;-42
2023/10/27 06:36:00;;;;;;;4.65;2.47;;;13.60;70.90;;;;;;5023400;28;20053;-41
2023/10/27 06:38:29;;;;;;;8.30;2.67;;;13.60;71.50;;;;;;5022082;28;20065;-43
2023/10/27 06:40:57;;;;;;;7.78;2.22;;;13.60;70.90;;;;;;5023409;28;20434;-46
2023/10/27 06:43:24;;;;;;;8.93;2.45;;;13.60;70.90;;;;;;5020353;28;20053;-43
2023/10/27 06:45:51;;;;;;;4.68;1.90;;;13.60;70.90;;;;;;5020865;28;20487;-41
2023/10/27 06:48:18;;;;;;;5.38;1.98;;;13.60;71.00;;;;;;5021813;28;20505;-43
2023/10/27 06:50:47;;;;;;;5.15;2.20;;;13.60;71.00;;;;;;5022973;28;20054;-43
2023/10/27 06:53:15;;;;;;;6.15;2.08;;;13.60;71.00;;;;;;5021040;28;20061;-43
2023/10/27 06:55:43;;;;;;;5.80;2.08;;;13.60;71.10;;;;;;5022456;28;20060;-44
2023/10/27 06:58:10;;;;;;;7.38;1.95;;;13.60;71.10;;;;;;5022118;28;20057;-45
2023/10/27 07:00:37;;;;;;;7.75;1.88;;;13.60;71.20;;;;;;5021113;28;20412;-41
2023/10/27 07:03:04;;;;;;;4.38;1.80;;;13.60;71.20;;;;;;5020638;28;20075;-41
2023/10/27 07:05:32;;;;;;;6.10;2.03;;;13.60;71.20;;;;;;5021643;28;20057;-43
2023/10/27 07:08:00;;;;;;;4.28;1.90;;;13.60;71.10;;;;;;5019033;28;20060;-42
2023/10/27 07:10:27;;;;;;;5.20;1.88;;;13.60;71.10;;;;;;5023716;28;20057;-44
2023/10/27 07:12:55;;;;;;;6.82;2.15;;;13.60;71.20;;;;;;5023707;28;20053;-41
2023/10/27 07:15:22;;;;;;;13.93;1.90;;;13.60;71.20;;;;;;5023073;28;20049;-40
2023/10/27 07:17:49;;;;;;;8.45;2.13;;;13.60;71.20;;;;;;5022899;28;20057;-44
2023/10/27 07:20:17;;;;;;;3.80;1.45;;;13.70;71.20;;;;;;5024263;28;20053;-43
2023/10/27 07:22:44;;;;;;;9.45;2.28;;;13.60;71.10;;;;;;5023139;28;20049;-42
2023/10/27 07:25:13;;;;;;;26.00;10.93;;;13.60;71.10;;;;;;5023720;28;20050;-43
2023/10/27 07:27:40;;;;;;;64.25;29.08;;;13.70;71.20;;;;;;5022344;28;20072;-43
2023/10/27 07:30:08;;;;;;;15.77;7.18;;;13.60;71.10;;;;;;5021357;28;20060;-44
2023/10/27 07:32:36;;;;;;;5.10;2.78;;;13.70;71.10;;;;;;5021897;28;20055;-42
2023/10/27 07:35:03;;;;;;;3.20;1.80;;;13.70;71.10;;;;;;5024204;28;20045;-42
2023/10/27 07:37:31;;;;;;;4.85;1.63;;;13.70;71.20;;;;;;5022617;28;20058;-41
2023/10/27 07:39:58;;;;;;;2.67;1.65;;;13.70;71.20;;;;;;5023567;28;20409;-41
2023/10/27 07:42:26;;;;;;;2.97;1.50;;;13.70;71.20;;;;;;5024029;28;20054;-44
2023/10/27 07:44:55;;;;;;;3.65;1.67;;;13.70;71.20;;;;;;5023087;28;20050;-45
2023/10/27 07:47:23;;;;;;;3.17;1.40;;;13.70;71.20;;;;;;5021318;28;20057;-41
2023/10/27 07:49:50;;;;;;;2.95;1.35;;;13.70;71.30;;;;;;5022198;28;20064;-42
2023/10/27 07:52:17;;;;;;;3.75;1.52;;;13.70;71.30;;;;;;5022899;28;20060;-41
2023/10/27 07:54:44;;;;;;;5.05;1.65;;;13.70;71.30;;;;;;5023069;28;20065;-43
2023/10/27 07:57:12;;;;;;;2.67;1.55;;;13.80;71.40;;;;;;5022766;28;20414;-43
2023/10/27 07:59:40;;;;;;;2.92;1.77;;;13.70;71.20;;;;;;5024002;28;20053;-46
2023/10/27 08:02:07;;;;;;;3.33;1.52;;;13.80;71.20;;;;;;5023915;28;20413;-43
2023/10/27 08:04:37;;;;;;;2.42;1.50;;;13.80;71.20;;;;;;5023015;28;20041;-44
2023/10/27 08:07:04;;;;;;;2.88;1.33;;;13.80;71.40;;;;;;5023027;28;20057;-43
2023/10/27 08:09:31;;;;;;;2.42;1.42;;;13.80;71.40;;;;;;5023193;28;20513;-46
2023/10/27 08:11:59;;;;;;;3.53;1.45;;;13.80;71.40;;;;;;5022876;28;20056;-44
2023/10/27 08:14:27;;;;;;;4.07;1.10;;;13.80;71.40;;;;;;5024000;28;20083;-46
2023/10/27 08:16:55;;;;;;;2.72;1.10;;;13.80;71.50;;;;;;5023071;28;20501;-44
2023/10/27 08:19:23;;;;;;;3.65;1.48;;;13.80;71.40;;;;;;5022651;28;20057;-45
2023/10/27 08:21:50;;;;;;;5.55;1.52;;;13.80;71.30;;;;;;5023467;28;20509;-47
2023/10/27 08:24:17;;;;;;;3.03;1.25;;;13.80;71.30;;;;;;5023433;28;20422;-46
2023/10/27 08:26:44;;;;;;;4.03;1.33;;;13.80;71.30;;;;;;5022286;28;20506;-43
2023/10/27 08:29:12;;;;;;;3.10;1.38;;;13.80;71.20;;;;;;5024044;28;20062;-43
2023/10/27 08:31:39;;;;;;;3.67;1.30;;;13.80;71.10;;;;;;5022451;28;20060;-47
2023/10/27 08:34:11;;;;;;;4.97;1.20;;;13.80;71.10;;;;;;5022484;28;20061;-45
2023/10/27 08:36:39;;;;;;;4.43;1.00;;;13.80;71.10;;;;;;5021499;28;20041;-43
2023/10/27 08:39:06;;;;;;;4.07;1.65;;;13.90;71.10;;;;;;5023312;28;20065;-42
2023/10/27 08:41:36;;;;;;;1.80;1.13;;;13.80;70.90;;;;;;5022743;28;20065;-46
2023/10/27 08:44:04;;;;;;;1.50;0.93;;;13.90;70.90;;;;;;5023738;28;20512;-44
2023/10/27 08:46:32;;;;;;;2.10;0.93;;;13.90;71.10;;;;;;5020364;28;20627;-44
2023/10/27 08:49:00;;;;;;;4.85;1.00;;;13.90;71.10;;;;;;5022152;28;20494;-44
2023/10/27 08:51:30;;;;;;;1.80;1.10;;;13.90;71.10;;;;;;5022601;28;20060;-44
2023/10/27 08:53:57;;;;;;;3.50;1.15;;;13.90;71.80;;;;;;5022254;28;20417;-44
2023/10/27 08:56:25;;;;;;;2.28;0.90;;;13.90;71.00;;;;;;5023986;28;20049;-46
2023/10/27 08:58:53;;;;;;;3.60;1.13;;;13.90;71.00;;;;;;5023190;28;20056;-43
2023/10/27 09:01:20;;;;;;;1.88;1.02;;;13.90;71.20;;;;;;5021676;28;20493;-43
2023/10/27 09:04:06;;;;;;;1.40;0.90;;;13.90;71.40;;;;;;5022019;28;20061;-43
2023/10/27 09:06:35;;;;;;;4.93;1.45;;;13.90;71.50;;;;;;5022018;28;20056;-42
2023/10/27 09:09:03;;;;;;;1.98;0.77;;;13.90;71.50;;;;;;5021651;28;20057;-44
2023/10/27 09:11:30;;;;;;;2.45;0.95;;;13.90;71.50;;;;;;5022677;28;20053;-43
2023/10/27 09:13:57;;;;;;;2.13;0.95;;;13.90;71.50;;;;;;5022483;28;20401;-45
2023/10/27 09:16:25;;;;;;;4.72;0.80;;;13.90;71.50;;;;;;5021190;28;20049;-44
2023/10/27 09:18:55;;;;;;;2.90;0.70;;;14.00;71.60;;;;;;5021491;28;20457;-42
2023/10/27 09:21:32;;;;;;;3.05;0.85;;;14.00;71.20;;;;;;5022758;28;20061;-44
2023/10/27 09:24:01;;;;;;;0.90;0.60;;;14.00;70.90;;;;;;5021648;28;20053;-44
2023/10/27 09:26:29;;;;;;;2.13;0.90;;;14.00;70.90;;;;;;5021783;28;20049;-42
2023/10/27 09:29:03;;;;;;;4.85;0.77;;;14.00;70.70;;;;;;5023205;28;20049;-42
2023/10/27 09:31:34;;;;;;;3.13;0.75;;;14.10;71.00;;;;;;5021565;28;20058;-44
2023/10/27 09:34:17;;;;;;;2.92;0.80;;;14.00;70.90;;;;;;5020616;28;20061;-43
2023/10/27 09:36:46;;;;;;;1.42;0.77;;;14.10;70.90;;;;;;5021703;28;20053;-43
2023/10/27 09:39:20;;;;;;;1.90;0.60;;;14.10;70.50;;;;;;5021352;28;20053;-42
2023/10/27 09:41:48;;;;;;;1.70;0.57;;;14.10;70.20;;;;;;5020497;28;20049;-42
2023/10/27 09:44:17;;;;;;;1.45;0.75;;;14.10;70.10;;;;;;5021670;28;20484;-42
2023/10/27 09:46:52;;;;;;;0.73;0.60;;;14.10;70.30;;;;;;5020320;28;20057;-40
2023/10/27 09:49:29;;;;;;;1.13;0.52;;;14.10;70.30;;;;;;5020854;28;20506;-43
2023/10/27 09:52:00;;;;;;;2.53;0.68;;;14.10;70.40;;;;;;5020847;28;20057;-45
2023/10/27 09:54:32;;;;;;;1.95;0.52;;;14.10;70.50;;;;;;5020793;28;20083;-44
2023/10/27 09:57:00;;;;;;;1.02;0.60;;;14.10;71.40;;;;;;5021481;28;20049;-49
2023/10/27 09:59:30;;;;;;;4.07;0.77;;;14.10;71.00;;;;;;5022269;28;20052;-46
2023/10/27 10:02:00;;;;;;;1.55;0.70;;;14.10;71.00;;;;;;5020596;28;20064;-45
2023/10/27 10:04:59;;;;;;;3.60;0.82;;;14.10;71.30;;;;;;5020568;28;20478;-48
2023/10/27 10:07:33;;;;;;;1.75;0.68;;;14.20;72.20;;;;;;5017528;28;20052;-46
2023/10/27 10:10:29;;;;;;;1.48;0.68;;;14.20;71.70;;;;;;5014944;28;20054;-45
2023/10/27 10:13:07;;;;;;;2.53;0.60;;;14.30;71.90;;;;;;5019500;28;20060;-47
2023/10/27 10:15:36;;;;;;;1.27;0.60;;;14.30;72.10;;;;;;5017578;28;20074;-45
2023/10/27 10:18:05;;;;;;;2.92;0.60;;;14.40;71.90;;;;;;5017505;28;20057;-46
2023/10/27 10:20:58;;;;;;;1.00;0.50;;;14.50;71.90;;;;;;5019687;28;20061;-46
2023/10/27 10:24:17;;;;;;;4.00;0.70;;;14.50;71.50;;;;;;5016202;28;20045;-45
2023/10/27 10:27:05;;;;;;;3.10;0.77;;;14.50;71.50;;;;;;5017931;28;20441;-47
2023/10/27 10:29:33;;;;;;;5.68;1.25;;;14.60;71.70;;;;;;5019914;28;20062;-46
2023/10/27 10:32:40;;;;;;;1.98;0.65;;;14.60;71.80;;;;;;5018104;28;20060;-48
2023/10/27 10:35:24;;;;;;;1.10;0.68;;;14.70;72.50;;;;;;5015197;28;20151;-47
2023/10/27 10:37:52;;;;;;;4.65;0.95;;;14.80;72.40;;;;;;5016823;28;20049;-49
2023/10/27 10:40:22;;;;;;;2.47;0.80;;;14.90;72.30;;;;;;5018413;28;20405;-47
2023/10/27 10:43:20;;;;;;;2.97;1.10;;;14.90;72.20;;;;;;5018665;28;20056;-47
2023/10/27 10:45:50;;;;;;;1.70;0.90;;;15.00;72.50;;;;;;5016409;28;20049;-50
2023/10/27 10:48:18;;;;;;;31.25;14.43;;;15.10;72.40;;;;;;5018369;28;20519;-49
2023/10/27 10:50:46;;;;;;;6.40;2.30;;;15.10;72.10;;;;;;5017024;28;20061;-46
2023/10/27 10:53:16;;;;;;;2.97;1.00;;;15.20;71.50;;;;;;5018594;28;20069;-50
2023/10/27 10:55:48;;;;;;;2.65;1.00;;;15.20;70.80;;;;;;5016446;28;20056;-47
2023/10/27 10:58:24;;;;;;;3.88;0.77;;;15.20;70.20;;;;;;5016635;28;20597;-48
2023/10/27 11:00:52;;;;;;;3.35;0.90;;;15.30;69.90;;;;;;5017452;28;20065;-48
2023/10/27 11:03:21;;;;;;;4.03;1.20;;;15.30;69.70;;;;;;5018237;28;20052;-47
2023/10/27 11:05:48;;;;;;;3.80;1.00;;;15.40;69.90;;;;;;5019941;28;20119;-50
2023/10/27 11:08:24;;;;;;;3.95;1.10;;;15.30;70.00;;;;;;5022224;28;20057;-46
2023/10/27 11:11:02;;;;;;;4.32;1.52;;;15.30;69.60;;;;;;5020507;28;21521;-49
2023/10/27 11:13:33;;;;;;;5.78;1.00;;;15.30;69.80;;;;;;5020550;28;20049;-48
2023/10/27 11:16:01;;;;;;;5.82;1.42;;;15.30;70.20;;;;;;5020492;28;20076;-46
2023/10/27 11:18:31;;;;;;;4.97;1.30;;;15.40;70.80;;;;;;5022530;28;20053;-52
2023/10/27 11:20:58;;;;;;;4.85;1.27;;;15.40;71.30;;;;;;5021240;28;20055;-49
2023/10/27 11:23:30;;;;;;;3.40;1.27;;;15.50;70.70;;;;;;5021064;28;20050;-44
2023/10/27 11:26:05;;;;;;;2.42;1.10;;;15.50;70.00;;;;;;5021264;28;20057;-47
2023/10/27 11:28:38;;;;;;;4.57;1.20;;;15.50;70.10;;;;;;5021950;28;20053;-47
2023/10/27 11:31:07;;;;;;;5.38;1.15;;;15.60;70.10;;;;;;5020324;28;20071;-48
2023/10/27 11:33:50;;;;;;;9.98;1.17;;;15.60;69.50;;;;;;5020421;28;20057;-48
2023/10/27 11:36:17;;;;;;;5.20;1.10;;;15.70;69.30;;;;;;5021048;28;20053;-47
2023/10/27 11:38:45;;;;;;;3.97;0.90;;;15.70;68.70;;;;;;5022340;28;20521;-46
2023/10/27 11:41:12;;;;;;;7.47;1.52;;;15.70;68.70;;;;;;5021585;28;20061;-46
2023/10/27 11:43:41;;;;;;;4.28;1.35;;;15.80;69.10;;;;;;5021646;28;20060;-46
2023/10/27 11:46:11;;;;;;;7.47;1.05;;;15.80;69.10;;;;;;5017865;28;20061;-49
2023/10/27 11:48:38;;;;;;;5.63;1.30;;;15.90;68.40;;;;;;5022105;28;20068;-49
2023/10/27 11:51:06;;;;;;;3.08;1.10;;;15.90;67.80;;;;;;5020842;28;20053;-51
2023/10/27 11:53:34;;;;;;;5.80;1.42;;;16.00;67.50;;;;;;5021686;28;20510;-47
2023/10/27 11:56:03;;;;;;;5.07;1.55;;;16.00;67.30;;;;;;5021697;28;20441;-49
2023/10/27 11:58:30;;;;;;;4.97;1.25;;;16.00;67.30;;;;;;5022267;28;20057;-47
2023/10/27 12:00:59;;;;;;;10.18;1.60;;;16.10;67.10;;;;;;5021505;28;20490;-48
2023/10/27 12:03:26;;;;;;;5.22;1.20;;;16.10;67.10;;;;;;5021416;28;20061;-47
2023/10/27 12:05:54;;;;;;;6.30;1.60;;;16.10;66.90;;;;;;5021541;28;20064;-46
2023/10/27 12:08:21;;;;;;;4.63;1.15;;;16.20;66.10;;;;;;5022129;28;20050;-49
2023/10/27 12:10:51;;;;;;;7.63;1.73;;;16.20;66.00;;;;;;5020875;28;20053;-47
2023/10/27 12:13:19;;;;;;;5.68;1.45;;;16.20;66.10;;;;;;5019518;28;20084;-49
2023/10/27 12:15:47;;;;;;;7.60;2.10;;;16.20;65.90;;;;;;5014301;28;20406;-47
2023/10/27 12:18:16;;;;;;;7.93;1.90;;;16.30;66.30;;;;;;5019460;28;20059;-49
2023/10/27 12:20:44;;;;;;;5.88;1.95;;;16.30;65.40;;;;;;5019784;28;20049;-47
2023/10/27 12:23:11;;;;;;;9.70;2.20;;;16.30;64.80;;;;;;5017947;28;20530;-46
2023/10/27 12:25:39;;;;;;;8.10;2.60;;;16.30;64.90;;;;;;5019649;28;20528;-50
2023/10/27 12:28:07;;;;;;;11.23;3.83;;;16.30;65.10;;;;;;5019538;28;20056;-47
2023/10/27 12:30:36;;;;;;;10.77;3.88;;;16.30;65.20;;;;;;5018694;28;20061;-47
2023/10/27 12:33:04;;;;;;;9.45;3.60;;;16.30;65.00;;;;;;5019262;28;20575;-48
2023/10/27 12:35:34;;;;;;;12.02;3.38;;;16.30;65.10;;;;;;5020530;28;20072;-46
2023/10/27 12:38:04;;;;;;;7.45;2.78;;;16.40;64.80;;;;;;5016950;28;20060;-47
2023/10/27 12:40:34;;;;;;;9.45;2.70;;;16.40;64.60;;;;;;5016515;28;20056;-48
2023/10/27 12:43:02;;;;;;;8.90;2.28;;;16.40;64.60;;;;;;5019782;28;20064;-47
2023/10/27 12:45:29;;;;;;;8.23;1.98;;;16.40;64.30;;;;;;5018866;28;20394;-51
2023/10/27 12:47:57;;;;;;;8.85;2.03;;;16.40;63.40;;;;;;5021324;28;20057;-50
2023/10/27 12:50:24;;;;;;;10.07;2.05;;;16.40;63.90;;;;;;5021058;28;20513;-46
2023/10/27 12:52:53;;;;;;;10.02;2.08;;;16.30;63.10;;;;;;5019998;28;20056;-51